createdAt,value
2023-01-02T00:58:45.034Z,95772.00
2023-01-02T00:59:44.982Z,95769.00
2023-01-02T01:00:44.986Z,95767.00
2023-01-02T01:01:45.148Z,95765.00
2023-01-02T01:02:45.005Z,95769.00
2023-01-02T01:03:44.780Z,95770.00
2023-01-02T01:04:44.736Z,95769.00
2023-01-02T01:05:44.677Z,95765.00
2023-01-02T01:06:44.621Z,95765.00
2023-01-02T01:07:44.574Z,95763.00
2023-01-02T01:08:44.536Z,95763.00
2023-01-02T01:09:44.484Z,95759.00
2023-01-02T01:10:44.417Z,95757.00
2023-01-02T01:11:44.391Z,95759.00
2023-01-02T01:12:44.365Z,95761.00
2023-01-02T01:13:44.287Z,95763.00
2023-01-02T01:14:44.215Z,95769.00
2023-01-02T01:15:44.173Z,95767.00
2023-01-02T01:16:44.154Z,95767.00
2023-01-02T01:17:44.084Z,95763.00
2023-01-02T01:18:44.048Z,95763.00
2023-01-02T01:19:43.993Z,95763.00
2023-01-02T01:20:43.956Z,95761.00
2023-01-02T01:21:43.906Z,95767.00
2023-01-02T01:22:43.855Z,95769.00
2023-01-02T01:23:43.809Z,95763.00
2023-01-02T01:24:43.773Z,95763.00
2023-01-02T01:25:43.711Z,95761.00
2023-01-02T01:26:43.658Z,95759.00
2023-01-02T01:27:43.647Z,95759.00
2023-01-02T01:28:43.565Z,95761.00
2023-01-02T01:29:43.520Z,95759.00
2023-01-02T01:30:43.475Z,95755.00
2023-01-02T01:31:43.511Z,95759.00
2023-01-02T01:32:43.389Z,95759.00
2023-01-02T01:33:43.333Z,95759.00
2023-01-02T01:34:43.281Z,95757.00
2023-01-02T01:35:43.237Z,95753.00
2023-01-02T01:36:43.185Z,95751.00
2023-01-02T01:37:43.133Z,95749.00
2023-01-02T01:38:43.116Z,95747.00
2023-01-02T01:39:43.033Z,95749.00
2023-01-02T01:40:42.985Z,95753.00
2023-01-02T01:41:42.956Z,95747.00
2023-01-02T01:42:42.881Z,95745.00
2023-01-02T01:43:42.869Z,95745.00
2023-01-02T01:44:42.818Z,95745.00
2023-01-02T01:45:42.776Z,95741.00
2023-01-02T01:46:42.700Z,95741.00
2023-01-02T01:47:42.648Z,95745.00
2023-01-02T01:48:42.593Z,95743.00
2023-01-02T01:49:42.538Z,95743.00
2023-01-02T01:50:42.485Z,95751.00
2023-01-02T01:51:42.435Z,95745.00
2023-01-02T01:52:42.439Z,95745.00
2023-01-02T01:53:42.333Z,95743.00
2023-01-02T01:54:42.275Z,95743.00
2023-01-02T01:55:42.227Z,95743.00
2023-01-02T01:56:42.175Z,95739.00
2023-01-02T01:57:42.181Z,95743.00
2023-01-02T01:58:42.088Z,95745.00
2023-01-02T01:59:42.061Z,95743.00
2023-01-02T02:00:42.155Z,95737.00
2023-01-02T02:01:42.128Z,95737.00
2023-01-02T02:02:42.012Z,95739.00
2023-01-02T02:03:41.836Z,95743.00
2023-01-02T02:04:41.790Z,95737.00
2023-01-02T02:05:41.735Z,95737.00
2023-01-02T02:06:41.709Z,95739.00
2023-01-02T02:07:41.659Z,95737.00
2023-01-02T02:08:41.608Z,95735.00
2023-01-02T02:09:41.556Z,95737.00
2023-01-02T02:10:41.523Z,95737.00
2023-01-02T02:11:41.461Z,95735.00
2023-01-02T02:12:41.414Z,95735.00
2023-01-02T02:13:41.365Z,95733.00
2023-01-02T02:14:41.323Z,95737.00
2023-01-02T02:15:41.303Z,95737.00
2023-01-02T02:16:41.260Z,95739.00
2023-01-02T02:17:41.164Z,95737.00
2023-01-02T02:18:41.126Z,95739.00
2023-01-02T02:19:41.088Z,95745.00
2023-01-02T02:20:41.032Z,95745.00
2023-01-02T02:21:40.987Z,95747.00
2023-01-02T02:22:40.937Z,95741.00
2023-01-02T02:23:40.902Z,95743.00
2023-01-02T02:24:40.852Z,95745.00
2023-01-02T02:25:40.801Z,95745.00
2023-01-02T02:26:40.747Z,95745.00
2023-01-02T02:27:40.698Z,95747.00
2023-01-02T02:28:40.653Z,95747.00
2023-01-02T02:29:40.633Z,95749.00
2023-01-02T02:30:40.555Z,95745.00
2023-01-02T02:31:40.583Z,95743.00
2023-01-02T02:32:40.453Z,95737.00
2023-01-02T02:33:40.417Z,95739.00
2023-01-02T02:34:40.360Z,95735.00
2023-01-02T02:35:40.325Z,95733.00
2023-01-02T02:36:40.274Z,95729.00
2023-01-02T02:37:40.228Z,95731.00
2023-01-02T02:38:40.175Z,95729.00
2023-01-02T02:39:40.136Z,95729.00
2023-01-02T02:40:40.090Z,95725.00
2023-01-02T02:41:40.048Z,95727.00
2023-01-02T02:42:40.003Z,95725.00
2023-01-02T02:43:39.959Z,95725.00
2023-01-02T02:44:39.909Z,95727.00
2023-01-02T02:45:39.897Z,95729.00
2023-01-02T02:46:39.823Z,95725.00
2023-01-02T02:47:39.803Z,95725.00
2023-01-02T02:48:46.232Z,95725.00
2023-01-02T02:49:39.674Z,95727.00
2023-01-02T02:50:39.630Z,95727.00
2023-01-02T02:51:39.578Z,95723.00
2023-01-02T02:52:39.533Z,95723.00
2023-01-02T02:53:39.484Z,95723.00
2023-01-02T02:54:39.431Z,95723.00
2023-01-02T02:55:39.382Z,95722.00
2023-01-02T02:56:39.335Z,95722.00
2023-01-02T02:57:39.292Z,95720.00
2023-01-02T02:58:39.249Z,95720.00
2023-01-02T02:59:39.205Z,95723.00
2023-01-02T03:00:39.150Z,95723.00
2023-01-02T03:01:39.347Z,95718.00
2023-01-02T03:02:39.235Z,95720.00
2023-01-02T03:03:39.028Z,95720.00
2023-01-02T03:04:38.973Z,95722.00
2023-01-02T03:05:38.917Z,95720.00
2023-01-02T03:06:38.875Z,95722.00
2023-01-02T03:07:38.833Z,95722.00
2023-01-02T03:08:38.783Z,95722.00
2023-01-02T03:09:38.744Z,95722.00
2023-01-02T03:10:38.699Z,95720.00
2023-01-02T03:11:38.652Z,95720.00
2023-01-02T03:12:38.613Z,95718.00
2023-01-02T03:13:41.989Z,95722.00
2023-01-02T03:14:38.530Z,95716.00
2023-01-02T03:15:38.492Z,95718.00
2023-01-02T03:16:38.458Z,95716.00
2023-01-02T03:17:38.392Z,95718.00
2023-01-02T03:18:38.352Z,95720.00
2023-01-02T03:19:38.327Z,95720.00
2023-01-02T03:20:38.274Z,95716.00
2023-01-02T03:21:38.260Z,95720.00
2023-01-02T03:22:38.178Z,95723.00
2023-01-02T03:23:38.133Z,95727.00
2023-01-02T03:24:38.090Z,95722.00
2023-01-02T03:25:38.050Z,95720.00
2023-01-02T03:26:38.051Z,95718.00
2023-01-02T03:27:37.953Z,95722.00
2023-01-02T03:28:37.917Z,95718.00
2023-01-02T03:29:37.859Z,95720.00
2023-01-02T03:30:37.856Z,95723.00
2023-01-02T03:31:37.764Z,95723.00
2023-01-02T03:32:37.715Z,95723.00
2023-01-02T03:33:37.668Z,95722.00
2023-01-02T03:34:37.617Z,95722.00
2023-01-02T03:35:37.596Z,95722.00
2023-01-02T03:36:37.529Z,95722.00
2023-01-02T03:37:37.491Z,95720.00
2023-01-02T03:38:37.435Z,95720.00
2023-01-02T03:39:37.387Z,95720.00
2023-01-02T03:40:37.350Z,95720.00
2023-01-02T03:41:37.303Z,95718.00
2023-01-02T03:42:37.376Z,95720.00
2023-01-02T03:43:37.217Z,95716.00
2023-01-02T03:44:37.181Z,95714.00
2023-01-02T03:45:37.207Z,95716.00
2023-01-02T03:46:37.080Z,95714.00
2023-01-02T03:47:37.032Z,95714.00
2023-01-02T03:48:37.017Z,95708.00
2023-01-02T03:49:36.968Z,95712.00
2023-01-02T03:50:36.915Z,95712.00
2023-01-02T03:51:36.918Z,95714.00
2023-01-02T03:52:36.819Z,95714.00
2023-01-02T03:53:36.827Z,95710.00
2023-01-02T03:54:36.732Z,95716.00
2023-01-02T03:55:36.698Z,95716.00
2023-01-02T03:56:36.640Z,95716.00
2023-01-02T03:57:36.595Z,95718.00
2023-01-02T03:58:36.583Z,95712.00
2023-01-02T03:59:36.554Z,95714.00
2023-01-02T04:00:36.458Z,95714.00
2023-01-02T04:01:36.581Z,95714.00
2023-01-02T04:02:36.502Z,95712.00
2023-01-02T04:03:36.314Z,95712.00
2023-01-02T04:04:36.275Z,95708.00
2023-01-02T04:05:36.228Z,95712.00
2023-01-02T04:06:36.235Z,95708.00
2023-01-02T04:07:36.166Z,95708.00
2023-01-02T04:08:36.125Z,95708.00
2023-01-02T04:09:36.058Z,95708.00
2023-01-02T04:10:36.028Z,95706.00
2023-01-02T04:11:35.976Z,95708.00
2023-01-02T04:12:35.933Z,95706.00
2023-01-02T04:13:35.900Z,95702.00
2023-01-02T04:14:35.848Z,95706.00
2023-01-02T04:15:35.882Z,95704.00
2023-01-02T04:16:35.779Z,95704.00
2023-01-02T04:17:35.708Z,95712.00
2023-01-02T04:18:35.675Z,95710.00
2023-01-02T04:19:35.630Z,95704.00
2023-01-02T04:20:35.579Z,95702.00
2023-01-02T04:21:35.531Z,95702.00
2023-01-02T04:22:35.533Z,95702.00
2023-01-02T04:23:35.453Z,95702.00
2023-01-02T04:24:35.383Z,95704.00
2023-01-02T04:25:35.334Z,95704.00
2023-01-02T04:26:35.317Z,95702.00
2023-01-02T04:27:35.239Z,95702.00
2023-01-02T04:28:35.192Z,95702.00
2023-01-02T04:29:35.140Z,95702.00
2023-01-02T04:30:35.079Z,95704.00
2023-01-02T04:31:35.195Z,95704.00
2023-01-02T04:32:34.984Z,95706.00
2023-01-02T04:33:34.930Z,95708.00
2023-01-02T04:34:34.882Z,95708.00
2023-01-02T04:35:34.833Z,95702.00
2023-01-02T04:36:34.781Z,95708.00
2023-01-02T04:37:34.734Z,95708.00
2023-01-02T04:38:34.687Z,95710.00
2023-01-02T04:39:34.727Z,95710.00
2023-01-02T04:40:34.593Z,95706.00
2023-01-02T04:41:34.587Z,95710.00
2023-01-02T04:42:34.526Z,95710.00
2023-01-02T04:43:34.466Z,95712.00
2023-01-02T04:44:34.404Z,95714.00
2023-01-02T04:45:34.354Z,95710.00
2023-01-02T04:46:34.397Z,95710.00
2023-01-02T04:47:34.260Z,95712.00
2023-01-02T04:48:34.227Z,95716.00
2023-01-02T04:49:34.174Z,95714.00
2023-01-02T04:50:34.158Z,95714.00
2023-01-02T04:51:34.097Z,95712.00
2023-01-02T04:52:37.394Z,95714.00
2023-01-02T04:53:33.997Z,95714.00
2023-01-02T04:54:33.955Z,95714.00
2023-01-02T04:55:33.924Z,95710.00
2023-01-02T04:56:33.872Z,95708.00
2023-01-02T04:57:33.807Z,95714.00
2023-01-02T04:58:33.758Z,95716.00
2023-01-02T04:59:33.712Z,95716.00
2023-01-02T05:00:33.660Z,95710.00
2023-01-02T05:01:33.748Z,95712.00
2023-01-02T05:02:33.714Z,95714.00
2023-01-02T05:03:33.576Z,95712.00
2023-01-02T05:04:33.473Z,95716.00
2023-01-02T05:05:33.431Z,95714.00
2023-01-02T05:06:33.376Z,95712.00
2023-01-02T05:07:33.360Z,95712.00
2023-01-02T05:08:33.285Z,95714.00
2023-01-02T05:09:33.234Z,95712.00
2023-01-02T05:10:33.211Z,95716.00
2023-01-02T05:11:33.184Z,95712.00
2023-01-02T05:12:33.127Z,95716.00
2023-01-02T05:13:33.048Z,95720.00
2023-01-02T05:14:33.008Z,95720.00
2023-01-02T05:15:33.096Z,95722.00
2023-01-02T05:16:32.899Z,95723.00
2023-01-02T05:17:32.915Z,95725.00
2023-01-02T05:18:32.827Z,95725.00
2023-01-02T05:19:32.754Z,95723.00
2023-01-02T05:20:32.703Z,95725.00
2023-01-02T05:21:32.649Z,95733.00
2023-01-02T05:22:32.606Z,95731.00
2023-01-02T05:23:32.555Z,95731.00
2023-01-02T05:24:32.494Z,95733.00
2023-01-02T05:25:32.437Z,95733.00
2023-01-02T05:26:32.384Z,95733.00
2023-01-02T05:27:32.390Z,95733.00
2023-01-02T05:28:36.767Z,95733.00
2023-01-02T05:29:32.239Z,95729.00
2023-01-02T05:30:32.196Z,95733.00
2023-01-02T05:31:32.175Z,95733.00
2023-01-02T05:32:32.127Z,95733.00
2023-01-02T05:33:32.036Z,95733.00
2023-01-02T05:34:31.985Z,95727.00
2023-01-02T05:35:33.218Z,95733.00
2023-01-02T05:36:32.044Z,95729.00
2023-01-02T05:37:31.949Z,95729.00
2023-01-02T05:38:31.936Z,95727.00
2023-01-02T05:39:31.847Z,95727.00
2023-01-02T05:40:31.796Z,95727.00
2023-01-02T05:41:31.734Z,95727.00
2023-01-02T05:42:31.691Z,95725.00
2023-01-02T05:43:31.672Z,95723.00
2023-01-02T05:44:31.588Z,95731.00
2023-01-02T05:45:31.535Z,95731.00
2023-01-02T05:46:31.602Z,95731.00
2023-01-02T05:47:31.448Z,95733.00
2023-01-02T05:48:31.392Z,95729.00
2023-01-02T05:49:31.357Z,95737.00
2023-01-02T05:50:31.301Z,95733.00
2023-01-02T05:51:31.251Z,95735.00
2023-01-02T05:52:31.203Z,95733.00
2023-01-02T05:53:31.190Z,95735.00
2023-01-02T05:54:31.119Z,95733.00
2023-01-02T05:55:31.067Z,95733.00
2023-01-02T05:56:31.018Z,95733.00
2023-01-02T05:57:30.975Z,95731.00
2023-01-02T05:58:30.947Z,95727.00
2023-01-02T05:59:34.491Z,95731.00
2023-01-02T06:00:30.815Z,95731.00
2023-01-02T06:01:30.821Z,95737.00
2023-01-02T06:02:30.900Z,95729.00
2023-01-02T06:03:30.764Z,95733.00
2023-01-02T06:04:30.633Z,95731.00
2023-01-02T06:05:30.631Z,95733.00
2023-01-02T06:06:30.537Z,95733.00
2023-01-02T06:07:30.503Z,95735.00
2023-01-02T06:08:30.436Z,95733.00
2023-01-02T06:09:30.392Z,95733.00
2023-01-02T06:10:30.343Z,95735.00
2023-01-02T06:11:30.293Z,95731.00
2023-01-02T06:12:30.246Z,95727.00
2023-01-02T06:13:30.219Z,95729.00
2023-01-02T06:14:30.159Z,95729.00
2023-01-02T06:15:30.121Z,95729.00
2023-01-02T06:16:30.246Z,95725.00
2023-01-02T06:17:29.992Z,95729.00
2023-01-02T06:18:29.958Z,95725.00
2023-01-02T06:19:29.900Z,95727.00
2023-01-02T06:20:29.894Z,95729.00
2023-01-02T06:21:29.797Z,95725.00
2023-01-02T06:22:29.738Z,95731.00
2023-01-02T06:23:29.687Z,95733.00
2023-01-02T06:24:29.641Z,95729.00
2023-01-02T06:25:29.634Z,95731.00
2023-01-02T06:26:34.505Z,95723.00
2023-01-02T06:27:29.493Z,95729.00
2023-01-02T06:28:29.440Z,95729.00
2023-01-02T06:29:29.405Z,95723.00
2023-01-02T06:30:29.391Z,95729.00
2023-01-02T06:31:29.393Z,95731.00
2023-01-02T06:32:29.248Z,95731.00
2023-01-02T06:33:29.201Z,95727.00
2023-01-02T06:34:29.146Z,95725.00
2023-01-02T06:35:29.100Z,95725.00
2023-01-02T06:36:29.050Z,95727.00
2023-01-02T06:37:29.015Z,95731.00
2023-01-02T06:38:28.952Z,95731.00
2023-01-02T06:39:28.907Z,95729.00
2023-01-02T06:40:28.853Z,95731.00
2023-01-02T06:41:28.800Z,95731.00
2023-01-02T06:42:28.754Z,95729.00
2023-01-02T06:43:28.701Z,95733.00
2023-01-02T06:44:28.654Z,95731.00
2023-01-02T06:45:28.670Z,95731.00
2023-01-02T06:46:28.590Z,95733.00
2023-01-02T06:47:28.535Z,95729.00
2023-01-02T06:48:28.451Z,95733.00
2023-01-02T06:49:28.413Z,95731.00
2023-01-02T06:50:34.601Z,95733.00
2023-01-02T06:51:28.337Z,95731.00
2023-01-02T06:52:28.339Z,95735.00
2023-01-02T06:53:28.247Z,95731.00
2023-01-02T06:54:28.172Z,95735.00
2023-01-02T06:55:28.115Z,95733.00
2023-01-02T06:56:28.061Z,95731.00
2023-01-02T06:57:28.012Z,95733.00
2023-01-02T06:58:27.970Z,95735.00
2023-01-02T06:59:27.924Z,95735.00
2023-01-02T07:00:27.877Z,95733.00
2023-01-02T07:01:27.905Z,95731.00
2023-01-02T07:02:27.913Z,95731.00
2023-01-02T07:03:27.867Z,95729.00
2023-01-02T07:04:27.690Z,95733.00
2023-01-02T07:05:27.660Z,95731.00
2023-01-02T07:06:27.585Z,95733.00
2023-01-02T07:07:27.536Z,95731.00
2023-01-02T07:08:27.488Z,95733.00
2023-01-02T07:09:27.432Z,95731.00
2023-01-02T07:10:27.383Z,95737.00
2023-01-02T07:11:27.341Z,95737.00
2023-01-02T07:12:27.286Z,95739.00
2023-01-02T07:13:27.237Z,95735.00
2023-01-02T07:14:27.243Z,95737.00
2023-01-02T07:15:27.144Z,95739.00
2023-01-02T07:16:27.143Z,95741.00
2023-01-02T07:17:27.076Z,95739.00
2023-01-02T07:18:26.994Z,95735.00
2023-01-02T07:19:26.997Z,95741.00
2023-01-02T07:20:26.895Z,95741.00
2023-01-02T07:21:26.877Z,95737.00
2023-01-02T07:22:26.809Z,95739.00
2023-01-02T07:23:26.757Z,95737.00
2023-01-02T07:24:26.705Z,95733.00
2023-01-02T07:25:26.660Z,95737.00
2023-01-02T07:26:26.611Z,95731.00
2023-01-02T07:27:26.602Z,95735.00
2023-01-02T07:28:26.528Z,95733.00
2023-01-02T07:29:26.488Z,95731.00
2023-01-02T07:30:26.441Z,95733.00
2023-01-02T07:31:26.492Z,95731.00
2023-01-02T07:32:27.693Z,95735.00
2023-01-02T07:33:26.368Z,95731.00
2023-01-02T07:34:26.328Z,95735.00
2023-01-02T07:35:26.306Z,95735.00
2023-01-02T07:36:26.237Z,95737.00
2023-01-02T07:37:26.218Z,95739.00
2023-01-02T07:38:26.926Z,95735.00
2023-01-02T07:39:26.110Z,95737.00
2023-01-02T07:40:31.946Z,95739.00
2023-01-02T07:41:26.036Z,95739.00
2023-01-02T07:42:25.953Z,95739.00
2023-01-02T07:43:25.910Z,95745.00
2023-01-02T07:44:25.878Z,95741.00
2023-01-02T07:45:25.822Z,95741.00
2023-01-02T07:46:25.836Z,95743.00
2023-01-02T07:47:25.725Z,95747.00
2023-01-02T07:48:25.681Z,95747.00
2023-01-02T07:49:25.679Z,95743.00
2023-01-02T07:50:25.600Z,95745.00
2023-01-02T07:51:27.618Z,95751.00
2023-01-02T07:52:25.500Z,95745.00
2023-01-02T07:53:25.458Z,95745.00
2023-01-02T07:54:25.410Z,95745.00
2023-01-02T07:55:25.363Z,95749.00
2023-01-02T07:56:25.305Z,95753.00
2023-01-02T07:57:25.261Z,95753.00
2023-01-02T07:58:25.209Z,95753.00
2023-01-02T07:59:25.183Z,95753.00
2023-01-02T08:00:25.128Z,95755.00
2023-01-02T08:01:25.235Z,95757.00
2023-01-02T08:02:25.150Z,95759.00
2023-01-02T08:03:24.967Z,95755.00
2023-01-02T08:04:25.007Z,95757.00
2023-01-02T08:05:24.885Z,95759.00
2023-01-02T08:06:24.854Z,95759.00
2023-01-02T08:07:24.798Z,95759.00
2023-01-02T08:08:24.711Z,95757.00
2023-01-02T08:09:24.666Z,95759.00
2023-01-02T08:10:24.645Z,95759.00
2023-01-02T08:11:24.567Z,95759.00
2023-01-02T08:12:24.521Z,95759.00
2023-01-02T08:13:24.453Z,95757.00
2023-01-02T08:14:24.407Z,95759.00
2023-01-02T08:15:24.424Z,95761.00
2023-01-02T08:16:24.368Z,95763.00
2023-01-02T08:17:24.252Z,95761.00
2023-01-02T08:18:24.197Z,95761.00
2023-01-02T08:19:24.142Z,95761.00
2023-01-02T08:20:24.095Z,95765.00
2023-01-02T08:21:24.066Z,95765.00
2023-01-02T08:22:23.995Z,95759.00
2023-01-02T08:23:23.970Z,95763.00
2023-01-02T08:24:23.906Z,95763.00
2023-01-02T08:25:23.854Z,95765.00
2023-01-02T08:26:23.809Z,95765.00
2023-01-02T08:27:23.766Z,95761.00
2023-01-02T08:28:23.727Z,95763.00
2023-01-02T08:29:23.682Z,95761.00
2023-01-02T08:30:23.637Z,95759.00
2023-01-02T08:31:23.759Z,95757.00
2023-01-02T08:32:23.633Z,95757.00
2023-01-02T08:33:23.501Z,95761.00
2023-01-02T08:34:23.444Z,95759.00
2023-01-02T08:35:37.230Z,95757.00
2023-01-02T08:36:23.362Z,95759.00
2023-01-02T08:37:23.348Z,95761.00
2023-01-02T08:38:23.240Z,95763.00
2023-01-02T08:39:23.237Z,95763.00
2023-01-02T08:40:23.142Z,95763.00
2023-01-02T08:41:23.093Z,95761.00
2023-01-02T08:42:23.167Z,95757.00
2023-01-02T08:43:23.003Z,95759.00
2023-01-02T08:44:22.944Z,95759.00
2023-01-02T08:45:22.895Z,95765.00
2023-01-02T08:46:22.924Z,95765.00
2023-01-02T08:47:22.810Z,95763.00
2023-01-02T08:48:22.774Z,95759.00
2023-01-02T08:49:22.703Z,95763.00
2023-01-02T08:50:22.665Z,95765.00
2023-01-02T08:51:22.608Z,95765.00
2023-01-02T08:52:22.633Z,95763.00
2023-01-02T08:53:22.508Z,95765.00
2023-01-02T08:54:22.469Z,95761.00
2023-01-02T08:55:22.439Z,95763.00
2023-01-02T08:56:22.432Z,95761.00
2023-01-02T08:57:22.330Z,95763.00
2023-01-02T08:58:22.960Z,95765.00
2023-01-02T08:59:22.232Z,95767.00
2023-01-02T09:00:22.196Z,95761.00
2023-01-02T09:01:22.279Z,95765.00
2023-01-02T09:02:22.351Z,95761.00
2023-01-02T09:03:22.115Z,95763.00
2023-01-02T09:04:21.998Z,95761.00
2023-01-02T09:05:21.948Z,95765.00
2023-01-02T09:06:22.596Z,95767.00
2023-01-02T09:07:21.859Z,95761.00
2023-01-02T09:08:21.840Z,95761.00
2023-01-02T09:09:21.760Z,95763.00
2023-01-02T09:10:21.714Z,95763.00
2023-01-02T09:11:21.726Z,95767.00
2023-01-02T09:12:21.725Z,95759.00
2023-01-02T09:13:21.574Z,95759.00
2023-01-02T09:14:21.659Z,95763.00
2023-01-02T09:15:21.478Z,95763.00
2023-01-02T09:16:21.568Z,95761.00
2023-01-02T09:17:21.403Z,95763.00
2023-01-02T09:18:27.299Z,95759.00
2023-01-02T09:19:21.271Z,95761.00
2023-01-02T09:20:21.225Z,95765.00
2023-01-02T09:21:21.184Z,95765.00
2023-01-02T09:22:21.190Z,95763.00
2023-01-02T09:23:21.082Z,95763.00
2023-01-02T09:24:21.026Z,95761.00
2023-01-02T09:25:24.369Z,95759.00
2023-01-02T09:26:20.974Z,95763.00
2023-01-02T09:27:20.904Z,95761.00
2023-01-02T09:28:20.838Z,95761.00
2023-01-02T09:29:20.807Z,95761.00
2023-01-02T09:30:20.754Z,95759.00
2023-01-02T09:31:20.776Z,95757.00
2023-01-02T09:32:20.654Z,95759.00
2023-01-02T09:33:20.607Z,95759.00
2023-01-02T09:34:20.561Z,95759.00
2023-01-02T09:35:20.521Z,95757.00
2023-01-02T09:36:20.476Z,95753.00
2023-01-02T09:37:20.412Z,95751.00
2023-01-02T09:38:20.376Z,95755.00
2023-01-02T09:39:20.326Z,95753.00
2023-01-02T09:40:20.403Z,95753.00
2023-01-02T09:41:20.239Z,95751.00
2023-01-02T09:42:20.324Z,95749.00
2023-01-02T09:43:20.174Z,95745.00
2023-01-02T09:44:20.087Z,95739.00
2023-01-02T09:45:20.072Z,95737.00
2023-01-02T09:46:20.121Z,95741.00
2023-01-02T09:47:19.951Z,95743.00
2023-01-02T09:48:19.905Z,95739.00
2023-01-02T09:49:19.862Z,95741.00
2023-01-02T09:50:19.833Z,95739.00
2023-01-02T09:51:19.763Z,95737.00
2023-01-02T09:52:19.766Z,95735.00
2023-01-02T09:53:19.665Z,95731.00
2023-01-02T09:54:19.619Z,95729.00
2023-01-02T09:55:19.584Z,95727.00
2023-01-02T09:56:22.789Z,95725.00
2023-01-02T09:57:19.476Z,95723.00
2023-01-02T09:58:19.416Z,95722.00
2023-01-02T09:59:19.390Z,95723.00
2023-01-02T10:00:19.315Z,95718.00
2023-01-02T10:01:19.270Z,95718.00
2023-01-02T10:02:19.356Z,95718.00
2023-01-02T10:03:19.550Z,95718.00
2023-01-02T10:04:19.200Z,95716.00
2023-01-02T10:05:19.101Z,95712.00
2023-01-02T10:06:19.018Z,95710.00
2023-01-02T10:07:18.999Z,95712.00
2023-01-02T10:08:18.935Z,95714.00
2023-01-02T10:09:18.879Z,95708.00
2023-01-02T10:10:18.841Z,95706.00
2023-01-02T10:11:18.788Z,95708.00
2023-01-02T10:12:18.822Z,95704.00
2023-01-02T10:13:18.697Z,95710.00
2023-01-02T10:14:20.206Z,95708.00
2023-01-02T10:15:18.627Z,95708.00
2023-01-02T10:16:18.595Z,95704.00
2023-01-02T10:17:18.528Z,95702.00
2023-01-02T10:18:18.453Z,95702.00
2023-01-02T10:19:18.434Z,95698.00
2023-01-02T10:20:23.761Z,95692.00
2023-01-02T10:21:18.306Z,95690.00
2023-01-02T10:22:18.267Z,95690.00
2023-01-02T10:23:18.206Z,95688.00
2023-01-02T10:24:18.155Z,95680.00
2023-01-02T10:25:18.105Z,95684.00
2023-01-02T10:26:18.056Z,95684.00
2023-01-02T10:27:18.018Z,95676.00
2023-01-02T10:28:17.946Z,95676.00
2023-01-02T10:29:17.892Z,95671.00
2023-01-02T10:30:17.859Z,95669.00
2023-01-02T10:31:17.867Z,95667.00
2023-01-02T10:32:17.733Z,95667.00
2023-01-02T10:33:17.683Z,95661.00
2023-01-02T10:34:17.648Z,95663.00
2023-01-02T10:35:17.576Z,95651.00
2023-01-02T10:36:17.518Z,95651.00
2023-01-02T10:37:17.474Z,95651.00
2023-01-02T10:38:17.414Z,95651.00
2023-01-02T10:39:17.410Z,95649.00
2023-01-02T10:40:17.309Z,95647.00
2023-01-02T10:41:17.253Z,95645.00
2023-01-02T10:42:17.206Z,95639.00
2023-01-02T10:43:17.141Z,95639.00
2023-01-02T10:44:17.114Z,95639.00
2023-01-02T10:45:17.046Z,95637.00
2023-01-02T10:46:17.017Z,95633.00
2023-01-02T10:47:16.982Z,95633.00
2023-01-02T10:48:16.889Z,95631.00
2023-01-02T10:49:16.828Z,95627.00
2023-01-02T10:50:16.778Z,95627.00
2023-01-02T10:51:16.729Z,95627.00
2023-01-02T10:52:16.682Z,95625.00
2023-01-02T10:53:16.627Z,95625.00
2023-01-02T10:54:16.574Z,95620.00
2023-01-02T10:55:16.521Z,95622.00
2023-01-02T10:56:16.485Z,95622.00
2023-01-02T10:57:16.420Z,95618.00
2023-01-02T10:58:16.373Z,95623.00
2023-01-02T10:59:16.316Z,95618.00
2023-01-02T11:00:16.265Z,95620.00
2023-01-02T11:01:16.385Z,95618.00
2023-01-02T11:02:16.357Z,95618.00
2023-01-02T11:03:16.134Z,95616.00
2023-01-02T11:04:16.056Z,95616.00
2023-01-02T11:05:16.001Z,95616.00
2023-01-02T11:06:26.849Z,95618.00
2023-01-02T11:07:15.904Z,95614.00
2023-01-02T11:08:15.888Z,95616.00
2023-01-02T11:09:15.806Z,95614.00
2023-01-02T11:10:15.747Z,95616.00
2023-01-02T11:11:15.708Z,95612.00
2023-01-02T11:12:15.707Z,95608.00
2023-01-02T11:13:15.635Z,95608.00
2023-01-02T11:14:15.548Z,95608.00
2023-01-02T11:15:15.499Z,95608.00
2023-01-02T11:16:15.525Z,95610.00
2023-01-02T11:17:15.414Z,95606.00
2023-01-02T11:18:15.409Z,95602.00
2023-01-02T11:19:15.329Z,95598.00
2023-01-02T11:20:15.258Z,95598.00
2023-01-02T11:21:15.200Z,95598.00
2023-01-02T11:22:15.167Z,95604.00
2023-01-02T11:23:15.129Z,95604.00
2023-01-02T11:24:15.064Z,95604.00
2023-01-02T11:25:15.005Z,95600.00
2023-01-02T11:26:14.955Z,95598.00
2023-01-02T11:27:14.909Z,95602.00
2023-01-02T11:28:14.895Z,95598.00
2023-01-02T11:29:14.824Z,95602.00
2023-01-02T11:30:14.773Z,95602.00
2023-01-02T11:31:14.761Z,95600.00
2023-01-02T11:32:14.657Z,95600.00
2023-01-02T11:33:14.658Z,95598.00
2023-01-02T11:34:14.635Z,95600.00
2023-01-02T11:35:14.526Z,95600.00
2023-01-02T11:36:14.454Z,95594.00
2023-01-02T11:37:14.420Z,95590.00
2023-01-02T11:38:14.367Z,95590.00
2023-01-02T11:39:14.357Z,95586.00
2023-01-02T11:40:14.245Z,95592.00
2023-01-02T11:41:14.205Z,95592.00
2023-01-02T11:42:14.139Z,95592.00
2023-01-02T11:43:14.098Z,95584.00
2023-01-02T11:44:20.192Z,95588.00
2023-01-02T11:45:13.986Z,95588.00
2023-01-02T11:46:13.996Z,95580.00
2023-01-02T11:47:13.887Z,95578.00
2023-01-02T11:48:13.831Z,95576.00
2023-01-02T11:49:13.791Z,95576.00
2023-01-02T11:50:13.759Z,95578.00
2023-01-02T11:51:17.465Z,95572.00
2023-01-02T11:52:13.647Z,95570.00
2023-01-02T11:53:13.597Z,95572.00
2023-01-02T11:54:13.584Z,95574.00
2023-01-02T11:55:13.487Z,95570.00
2023-01-02T11:56:13.439Z,95568.00
2023-01-02T11:57:18.551Z,95570.00
2023-01-02T11:58:13.345Z,95568.00
2023-01-02T11:59:13.301Z,95574.00
2023-01-02T12:00:13.247Z,95568.00
2023-01-02T12:01:13.283Z,95568.00
2023-01-02T12:02:13.350Z,95567.00
2023-01-02T12:03:18.279Z,95568.00
2023-01-02T12:04:13.063Z,95567.00
2023-01-02T12:05:12.988Z,95565.00
2023-01-02T12:06:12.936Z,95570.00
2023-01-02T12:07:12.914Z,95567.00
2023-01-02T12:08:12.838Z,95568.00
2023-01-02T12:09:12.868Z,95567.00
2023-01-02T12:10:12.735Z,95565.00
2023-01-02T12:11:12.683Z,95563.00
2023-01-02T12:12:12.869Z,95565.00
2023-01-02T12:13:12.599Z,95563.00
2023-01-02T12:14:12.523Z,95565.00
2023-01-02T12:15:12.470Z,95565.00
2023-01-02T12:16:12.465Z,95561.00
2023-01-02T12:17:12.352Z,95565.00
2023-01-02T12:18:12.302Z,95563.00
2023-01-02T12:19:12.257Z,95565.00
2023-01-02T12:20:12.217Z,95563.00
2023-01-02T12:21:12.156Z,95563.00
2023-01-02T12:22:12.103Z,95565.00
2023-01-02T12:23:12.079Z,95561.00
2023-01-02T12:24:12.002Z,95561.00
2023-01-02T12:25:11.950Z,95559.00
2023-01-02T12:26:11.906Z,95557.00
2023-01-02T12:27:11.845Z,95557.00
2023-01-02T12:28:11.794Z,95551.00
2023-01-02T12:29:11.744Z,95553.00
2023-01-02T12:30:11.707Z,95555.00
2023-01-02T12:31:11.646Z,95555.00
2023-01-02T12:32:11.743Z,95553.00
2023-01-02T12:33:11.540Z,95555.00
2023-01-02T12:34:11.489Z,95553.00
2023-01-02T12:35:11.458Z,95553.00
2023-01-02T12:36:11.391Z,95555.00
2023-01-02T12:37:11.335Z,95551.00
2023-01-02T12:38:11.280Z,95555.00
2023-01-02T12:39:11.247Z,95551.00
2023-01-02T12:40:11.171Z,95551.00
2023-01-02T12:41:11.117Z,95547.00
2023-01-02T12:42:11.066Z,95547.00